createdAt,value
2019-03-26T00:00:20.103Z,42.50
2019-03-26T00:02:48.529Z,29.35
2019-03-26T00:05:16.975Z,27.37
2019-03-26T00:07:45.400Z,31.35
2019-03-26T00:10:13.834Z,41.73
2019-03-26T00:12:42.274Z,38.58
2019-03-26T00:15:10.694Z,29.85
2019-03-26T00:17:39.142Z,37.85
2019-03-26T00:20:09.279Z,32.20
2019-03-26T00:22:37.718Z,25.40
2019-03-26T00:25:07.723Z,35.23
2019-03-26T00:27:36.169Z,28.02
2019-03-26T00:30:05.964Z,30.82
2019-03-26T00:32:34.380Z,27.67
2019-03-26T00:35:02.963Z,40.55
2019-03-26T00:37:31.408Z,20.27
2019-03-26T00:39:59.849Z,34.53
2019-03-26T00:42:28.302Z,36.13
2019-03-26T00:44:56.743Z,42.67
2019-03-26T00:47:25.185Z,36.10
2019-03-26T00:49:53.658Z,33.20
2019-03-26T00:52:22.152Z,25.40
2019-03-26T00:54:50.593Z,36.80
2019-03-26T00:57:19.035Z,37.35
2019-03-26T00:59:47.465Z,29.12
2019-03-26T01:02:15.912Z,24.23
2019-03-26T01:04:44.422Z,26.65
2019-03-26T01:07:12.875Z,43.52
2019-03-26T01:09:42.531Z,39.60
2019-03-26T01:12:10.967Z,27.00
2019-03-26T01:14:39.408Z,30.05
2019-03-26T01:17:07.850Z,32.08
2019-03-26T01:19:36.303Z,30.43
2019-03-26T01:22:04.725Z,30.50
2019-03-26T01:24:33.173Z,27.75
2019-03-26T01:27:01.687Z,39.42
2019-03-26T01:29:30.616Z,35.70
2019-03-26T01:31:59.054Z,30.72
2019-03-26T01:34:27.508Z,39.30
2019-03-26T01:36:55.922Z,33.78
2019-03-26T01:39:24.377Z,30.55
2019-03-26T01:41:52.819Z,28.57
2019-03-26T01:44:22.790Z,29.15
2019-03-26T01:46:51.221Z,36.83
2019-03-26T01:49:19.655Z,40.95
2019-03-26T01:51:50.480Z,35.88
2019-03-26T01:54:21.851Z,36.30
2019-03-26T01:56:50.277Z,24.55
2019-03-26T01:59:18.796Z,31.40
2019-03-26T02:01:47.220Z,31.48
2019-03-26T02:04:15.657Z,31.12
2019-03-26T02:06:44.099Z,31.35
2019-03-26T02:09:12.560Z,31.40
2019-03-26T02:11:41.071Z,25.95
2019-03-26T02:14:09.523Z,28.45
2019-03-26T02:16:37.963Z,31.82
2019-03-26T02:19:09.092Z,29.42
2019-03-26T02:21:37.546Z,26.12
2019-03-26T02:24:05.981Z,30.55
2019-03-26T02:26:34.418Z,34.83
2019-03-26T02:29:03.194Z,23.67
2019-03-26T02:31:31.625Z,37.10
2019-03-26T02:34:00.076Z,33.28
2019-03-26T02:36:28.501Z,30.00
2019-03-26T02:38:56.937Z,34.27
2019-03-26T02:41:25.362Z,30.37
2019-03-26T02:43:54.174Z,40.17
2019-03-26T02:46:22.615Z,39.25
2019-03-26T02:48:51.069Z,31.62
2019-03-26T02:51:19.508Z,28.05
2019-03-26T02:53:47.927Z,38.08
2019-03-26T02:56:16.383Z,34.23
2019-03-26T02:58:44.814Z,29.07
2019-03-26T03:01:16.538Z,30.92
2019-03-26T03:03:44.440Z,28.30
2019-03-26T03:06:12.918Z,41.25
2019-03-26T03:08:41.799Z,42.03
2019-03-26T03:11:10.227Z,33.23
2019-03-26T03:13:38.676Z,34.33
2019-03-26T03:16:07.109Z,31.10
2019-03-26T03:18:35.573Z,43.42
2019-03-26T03:21:04.008Z,46.30
2019-03-26T03:23:32.456Z,45.17
2019-03-26T03:26:03.856Z,37.75
2019-03-26T03:28:32.293Z,27.10
2019-03-26T03:31:07.968Z,20.20
2019-03-26T03:33:36.405Z,26.37
2019-03-26T03:36:04.846Z,20.82
2019-03-26T03:38:33.271Z,31.52
2019-03-26T03:41:01.719Z,28.52
2019-03-26T03:43:30.168Z,34.73
2019-03-26T03:45:58.815Z,32.20
2019-03-26T03:48:27.607Z,41.45
2019-03-26T03:50:58.333Z,34.88
2019-03-26T03:53:27.333Z,38.33
2019-03-26T03:55:58.282Z,24.15
2019-03-26T03:58:28.867Z,32.05
2019-03-26T04:00:58.851Z,33.45
2019-03-26T04:03:27.288Z,23.52
2019-03-26T04:06:08.306Z,36.00
2019-03-26T04:08:25.896Z,27.77
2019-03-26T04:10:54.328Z,24.30
2019-03-26T04:13:22.779Z,29.60
2019-03-26T04:15:51.295Z,30.85
2019-03-26T04:18:21.291Z,26.95
2019-03-26T04:20:49.799Z,27.25
2019-03-26T04:23:18.311Z,28.47
2019-03-26T04:25:46.737Z,33.28
2019-03-26T04:28:15.191Z,24.00
2019-03-26T04:30:43.942Z,27.05
2019-03-26T04:33:12.374Z,22.58
2019-03-26T04:35:40.832Z,16.67
2019-03-26T04:38:09.262Z,18.55
2019-03-26T04:40:37.716Z,34.18
2019-03-26T04:43:06.163Z,32.40
2019-03-26T04:45:34.665Z,21.75
2019-03-26T04:48:03.102Z,22.05
2019-03-26T04:50:31.569Z,20.72
2019-03-26T04:53:00.061Z,23.55
2019-03-26T04:55:28.495Z,21.97
2019-03-26T04:57:57.005Z,27.42
2019-03-26T05:00:25.514Z,27.67
2019-03-26T05:02:53.947Z,29.75
2019-03-26T05:05:22.398Z,34.95
2019-03-26T05:07:50.823Z,35.33
2019-03-26T05:10:19.402Z,19.55
2019-03-26T05:12:47.838Z,29.32
2019-03-26T05:15:16.352Z,29.48
2019-03-26T05:17:44.784Z,39.63
2019-03-26T05:20:13.286Z,30.30
2019-03-26T05:22:41.750Z,30.20
2019-03-26T05:25:10.341Z,33.67
2019-03-26T05:27:45.233Z,23.90
2019-03-26T05:30:09.580Z,26.27
2019-03-26T05:32:38.028Z,35.80
2019-03-26T05:35:06.918Z,28.42
2019-03-26T05:37:35.440Z,32.58
2019-03-26T05:40:06.514Z,21.70
2019-03-26T05:42:34.965Z,19.70
2019-03-26T05:45:03.862Z,18.35
2019-03-26T05:47:32.294Z,24.37
2019-03-26T05:50:00.738Z,26.45
2019-03-26T05:52:29.166Z,22.27
2019-03-26T05:54:57.609Z,26.23
2019-03-26T05:57:26.055Z,26.80
2019-03-26T05:59:54.501Z,23.57
2019-03-26T06:02:22.942Z,27.67
2019-03-26T06:04:51.369Z,26.87
2019-03-26T06:07:19.879Z,27.15
2019-03-26T06:09:48.314Z,24.90
2019-03-26T06:12:16.755Z,23.67
2019-03-26T06:14:45.190Z,32.05
2019-03-26T06:17:13.727Z,28.23
2019-03-26T06:19:42.158Z,28.15
2019-03-26T06:22:10.587Z,18.05
2019-03-26T06:24:39.035Z,24.63
2019-03-26T06:27:07.479Z,28.17
2019-03-26T06:29:35.925Z,19.10
2019-03-26T06:32:04.353Z,14.70
2019-03-26T06:34:32.794Z,20.57
2019-03-26T06:37:01.230Z,19.90
2019-03-26T06:39:29.649Z,25.02
2019-03-26T06:41:58.089Z,18.60
2019-03-26T06:44:26.531Z,20.15
2019-03-26T06:46:54.980Z,22.80
2019-03-26T06:49:23.415Z,9.50
2019-03-26T06:51:51.841Z,9.88
2019-03-26T06:54:20.278Z,11.10
2019-03-26T06:56:48.727Z,11.48
2019-03-26T06:59:17.175Z,16.07
2019-03-26T07:01:45.775Z,9.33
2019-03-26T07:04:14.216Z,13.28
2019-03-26T07:06:42.658Z,16.00
2019-03-26T07:09:11.082Z,16.97
2019-03-26T07:11:39.551Z,13.88
2019-03-26T07:14:07.977Z,25.35
2019-03-26T07:16:36.494Z,24.35
2019-03-26T07:19:05.918Z,20.32
2019-03-26T07:21:34.376Z,35.13
2019-03-26T07:24:02.873Z,29.60
2019-03-26T07:26:31.299Z,17.90
2019-03-26T07:28:59.738Z,26.70
2019-03-26T07:31:28.191Z,28.27
2019-03-26T07:33:56.640Z,23.27
2019-03-26T07:36:25.082Z,36.33
2019-03-26T07:38:53.535Z,28.65
2019-03-26T07:41:22.009Z,24.25
2019-03-26T07:43:50.444Z,25.77
2019-03-26T07:46:18.883Z,32.73
2019-03-26T07:48:48.853Z,36.73
2019-03-26T07:51:17.300Z,26.48
2019-03-26T07:53:45.734Z,28.80
2019-03-26T07:56:14.173Z,31.10
2019-03-26T07:58:42.610Z,35.92
2019-03-26T08:01:11.068Z,31.25
2019-03-26T08:03:39.570Z,27.85
2019-03-26T08:06:07.999Z,34.23
2019-03-26T08:08:36.442Z,40.38
2019-03-26T08:11:04.897Z,28.60
2019-03-26T08:13:34.998Z,31.42
2019-03-26T08:16:03.622Z,34.60
2019-03-26T08:18:32.084Z,35.40
2019-03-26T08:21:00.537Z,35.28
2019-03-26T08:23:29.051Z,38.78
2019-03-26T08:25:57.478Z,31.65
2019-03-26T08:28:25.918Z,31.20
2019-03-26T08:30:54.476Z,41.92
2019-03-26T08:33:23.533Z,33.42
2019-03-26T08:35:52.007Z,30.97
2019-03-26T08:38:20.459Z,43.20
2019-03-26T08:40:48.882Z,31.80
2019-03-26T08:43:17.318Z,42.40
2019-03-26T08:45:45.746Z,28.65
2019-03-26T08:48:14.196Z,31.33
2019-03-26T08:50:42.632Z,36.83
2019-03-26T08:53:11.076Z,33.00
2019-03-26T08:55:40.892Z,36.48
2019-03-26T08:58:09.328Z,28.87
2019-03-26T09:00:37.775Z,30.15
2019-03-26T09:03:06.214Z,36.10
2019-03-26T09:05:34.673Z,26.62
2019-03-26T09:08:03.499Z,38.42
2019-03-26T09:10:32.005Z,25.08
2019-03-26T09:13:00.451Z,27.02
2019-03-26T09:15:28.892Z,20.75
2019-03-26T09:17:57.341Z,29.90
2019-03-26T09:20:25.775Z,30.37
2019-03-26T09:22:54.209Z,27.17
2019-03-26T09:25:22.647Z,25.17
2019-03-26T09:27:53.340Z,30.62
2019-03-26T09:30:21.258Z,33.50
2019-03-26T09:32:49.780Z,29.98
2019-03-26T09:35:18.213Z,28.77
2019-03-26T09:37:46.658Z,36.90
2019-03-26T09:40:15.168Z,31.42
2019-03-26T09:42:43.615Z,36.45
2019-03-26T09:45:13.023Z,33.73
2019-03-26T09:47:41.520Z,28.17
2019-03-26T09:50:11.401Z,28.27
2019-03-26T09:52:39.841Z,22.37
2019-03-26T09:55:08.911Z,20.52
2019-03-26T09:57:37.736Z,28.77
2019-03-26T10:00:11.510Z,26.80
2019-03-26T10:02:42.767Z,29.72
2019-03-26T10:05:10.790Z,33.58
2019-03-26T10:07:39.230Z,32.23
2019-03-26T10:10:08.352Z,33.05
2019-03-26T10:12:36.836Z,33.55
2019-03-26T10:15:06.902Z,36.25
2019-03-26T10:17:35.610Z,35.75
2019-03-26T10:20:06.659Z,39.48
2019-03-26T10:22:36.543Z,27.45
2019-03-26T10:25:10.915Z,25.00
2019-03-26T10:27:39.370Z,21.57
2019-03-26T10:30:08.738Z,26.85
2019-03-26T10:32:37.179Z,26.87
2019-03-26T10:35:06.672Z,40.15
2019-03-26T10:37:35.111Z,29.42
2019-03-26T10:40:07.172Z,30.10
2019-03-26T10:42:35.609Z,21.12
2019-03-26T10:45:06.098Z,22.42
2019-03-26T10:47:34.530Z,30.20
2019-03-26T10:50:03.129Z,19.92
2019-03-26T10:52:34.436Z,28.62
2019-03-26T10:55:01.756Z,33.00
2019-03-26T10:57:30.207Z,20.70
2019-03-26T10:59:58.637Z,29.42
2019-03-26T11:02:27.082Z,21.73
2019-03-26T11:04:55.527Z,20.35
2019-03-26T11:07:23.971Z,18.42
2019-03-26T11:09:52.416Z,32.13
2019-03-26T11:12:22.386Z,30.52
2019-03-26T11:14:50.825Z,23.18
2019-03-26T11:17:19.275Z,29.02
2019-03-26T11:19:47.710Z,26.68
2019-03-26T11:22:23.342Z,22.62
2019-03-26T11:24:51.789Z,26.50
2019-03-26T11:27:20.242Z,29.98
2019-03-26T11:29:48.681Z,18.90
2019-03-26T11:32:17.119Z,22.07
2019-03-26T11:34:45.541Z,30.60
2019-03-26T11:37:14.063Z,27.52
2019-03-26T11:39:42.503Z,24.52
2019-03-26T11:42:10.935Z,29.60
2019-03-26T11:44:39.406Z,29.32
2019-03-26T11:47:07.903Z,22.17
2019-03-26T11:49:36.343Z,25.00
2019-03-26T11:52:04.846Z,23.95
2019-03-26T11:54:33.306Z,29.30
2019-03-26T11:57:01.752Z,30.97
2019-03-26T11:59:30.282Z,27.73
2019-03-26T12:01:58.723Z,21.82
2019-03-26T12:04:27.192Z,26.65
2019-03-26T12:06:55.630Z,26.62
2019-03-26T12:09:24.085Z,29.70
2019-03-26T12:11:52.519Z,27.62
2019-03-26T12:14:20.999Z,18.52
2019-03-26T12:16:49.462Z,18.82
2019-03-26T12:19:17.905Z,26.40
2019-03-26T12:21:46.351Z,23.75
2019-03-26T12:24:14.797Z,18.62
2019-03-26T12:26:43.238Z,25.48
2019-03-26T12:29:11.674Z,16.65
2019-03-26T12:31:40.127Z,18.67
2019-03-26T12:34:08.554Z,24.67
2019-03-26T12:36:40.150Z,16.25
2019-03-26T12:39:07.639Z,21.80
2019-03-26T12:41:38.568Z,21.07
2019-03-26T12:44:06.252Z,17.10
2019-03-26T12:46:34.690Z,20.08
2019-03-26T12:49:03.151Z,23.95
2019-03-26T12:51:31.595Z,25.20
2019-03-26T12:54:02.415Z,24.30
2019-03-26T12:56:30.908Z,14.55
2019-03-26T12:58:59.354Z,19.67
2019-03-26T13:01:27.792Z,24.47
2019-03-26T13:03:57.086Z,20.12
2019-03-26T13:06:25.523Z,15.38
2019-03-26T13:08:53.962Z,17.20
2019-03-26T13:11:22.427Z,27.75
2019-03-26T13:13:50.937Z,17.02
2019-03-26T13:16:19.387Z,17.55
2019-03-26T13:18:47.840Z,23.57
2019-03-26T13:21:16.276Z,25.40
2019-03-26T13:23:44.727Z,21.87
2019-03-26T13:26:13.734Z,25.02
2019-03-26T13:28:42.188Z,22.07
2019-03-26T13:31:10.614Z,20.82
2019-03-26T13:33:39.072Z,18.40
2019-03-26T13:36:07.519Z,17.37
2019-03-26T13:38:35.965Z,11.70
2019-03-26T13:41:04.476Z,30.97
2019-03-26T13:43:32.909Z,21.73
2019-03-26T13:46:02.411Z,21.75
2019-03-26T13:48:30.851Z,26.48
2019-03-26T13:50:59.290Z,27.67
2019-03-26T13:53:27.734Z,23.45
2019-03-26T13:55:56.170Z,19.42
2019-03-26T13:58:24.617Z,19.52
2019-03-26T14:00:53.051Z,23.00
2019-03-26T14:03:21.486Z,21.85
2019-03-26T14:05:49.935Z,15.68
2019-03-26T14:08:18.394Z,26.12
2019-03-26T14:10:46.831Z,15.95
2019-03-26T14:13:15.261Z,16.17
2019-03-26T14:15:43.709Z,20.40
2019-03-26T14:18:12.161Z,19.95
2019-03-26T14:20:42.232Z,20.02
2019-03-26T14:23:10.672Z,22.73
2019-03-26T14:25:39.674Z,16.07
2019-03-26T14:28:08.122Z,17.70
2019-03-26T14:30:43.934Z,16.37
2019-03-26T14:33:12.524Z,14.25
2019-03-26T14:35:40.955Z,16.17
2019-03-26T14:38:09.474Z,18.10
2019-03-26T14:40:37.973Z,14.95
2019-03-26T14:43:10.921Z,30.62
2019-03-26T14:45:42.181Z,13.83
2019-03-26T14:48:09.691Z,16.05
2019-03-26T14:50:38.135Z,15.88
2019-03-26T14:53:06.579Z,16.20
2019-03-26T14:55:35.092Z,14.93
2019-03-26T14:58:03.523Z,18.05
2019-03-26T15:00:31.972Z,17.48
2019-03-26T15:03:00.401Z,19.45
2019-03-26T15:05:32.032Z,12.33
2019-03-26T15:08:00.470Z,17.87
2019-03-26T15:10:28.927Z,17.45
2019-03-26T15:12:57.372Z,12.35
2019-03-26T15:15:25.903Z,17.98
2019-03-26T15:17:54.356Z,16.52
2019-03-26T15:20:22.874Z,13.48
2019-03-26T15:22:51.324Z,11.85
2019-03-26T15:25:19.770Z,17.05
2019-03-26T15:27:49.854Z,13.85
2019-03-26T15:30:18.379Z,17.15
2019-03-26T15:32:46.820Z,18.55
2019-03-26T15:35:15.339Z,23.60
2019-03-26T15:37:44.735Z,22.02
2019-03-26T15:40:13.424Z,20.32
2019-03-26T15:42:41.854Z,20.08
2019-03-26T15:45:12.215Z,15.48
2019-03-26T15:47:40.660Z,27.07
2019-03-26T15:50:09.534Z,24.60
2019-03-26T15:52:37.975Z,33.20
2019-03-26T15:55:07.162Z,21.07
2019-03-26T15:57:35.607Z,23.73
2019-03-26T16:00:08.574Z,18.10
2019-03-26T16:02:37.022Z,18.25
2019-03-26T16:05:07.415Z,15.20
2019-03-26T16:07:35.861Z,25.05
2019-03-26T16:10:06.230Z,22.25
2019-03-26T16:12:40.932Z,12.25
2019-03-26T16:15:06.666Z,19.17
2019-03-26T16:17:36.858Z,20.57
2019-03-26T16:20:07.642Z,17.00
2019-03-26T16:22:36.100Z,24.85
2019-03-26T16:25:06.558Z,15.65
2019-03-26T16:27:35.001Z,20.10
2019-03-26T16:30:05.242Z,14.47
2019-03-26T16:32:33.707Z,16.65
2019-03-26T16:35:02.143Z,22.85
2019-03-26T16:37:30.568Z,15.05
2019-03-26T16:39:59.019Z,13.70
2019-03-26T16:42:27.465Z,16.75
2019-03-26T16:44:56.266Z,14.05
2019-03-26T16:47:24.727Z,17.85
2019-03-26T16:49:53.243Z,13.45
2019-03-26T16:52:21.697Z,13.50
2019-03-26T16:54:50.225Z,17.87
2019-03-26T16:57:18.663Z,23.15
2019-03-26T16:59:47.094Z,17.90
2019-03-26T17:02:15.615Z,15.25
2019-03-26T17:04:46.795Z,18.20
2019-03-26T17:07:14.682Z,22.05
2019-03-26T17:09:43.109Z,17.25
2019-03-26T17:12:11.568Z,21.70
2019-03-26T17:14:40.019Z,18.82
2019-03-26T17:17:08.547Z,19.50
2019-03-26T17:19:36.982Z,20.50
2019-03-26T17:22:05.423Z,29.82
2019-03-26T17:24:33.866Z,17.77
2019-03-26T17:27:02.315Z,19.42
2019-03-26T17:29:31.438Z,16.73
2019-03-26T17:31:59.884Z,17.17
2019-03-26T17:34:28.319Z,16.87
2019-03-26T17:36:56.768Z,19.42
2019-03-26T17:39:25.206Z,23.12
2019-03-26T17:41:53.663Z,26.50
2019-03-26T17:44:22.099Z,31.23
2019-03-26T17:46:50.534Z,20.90
2019-03-26T17:49:18.987Z,24.82
2019-03-26T17:51:47.419Z,24.95
2019-03-26T17:54:15.863Z,25.70
2019-03-26T17:56:47.243Z,36.23
2019-03-26T17:59:14.453Z,28.50
2019-03-26T18:01:42.894Z,32.13
2019-03-26T18:04:12.096Z,25.12
2019-03-26T18:06:40.534Z,32.17
2019-03-26T18:09:08.962Z,31.10
2019-03-26T18:11:37.414Z,37.90
2019-03-26T18:14:05.859Z,32.50
2019-03-26T18:16:34.308Z,34.80
2019-03-26T18:19:02.742Z,24.70
2019-03-26T18:21:31.184Z,20.35
2019-03-26T18:23:59.614Z,38.13
2019-03-26T18:26:28.158Z,27.93
2019-03-26T18:28:56.615Z,30.52
2019-03-26T18:31:25.107Z,27.70
2019-03-26T18:33:53.544Z,35.88
2019-03-26T18:36:21.978Z,37.35
2019-03-26T18:38:50.418Z,37.50
2019-03-26T18:41:18.845Z,29.82
2019-03-26T18:43:50.238Z,24.25
2019-03-26T18:46:18.727Z,34.25
2019-03-26T18:48:47.235Z,33.88
2019-03-26T18:51:15.667Z,35.28
2019-03-26T18:53:44.109Z,35.30
2019-03-26T18:56:12.562Z,33.55
2019-03-26T18:58:42.552Z,37.33
2019-03-26T19:01:10.989Z,29.07
2019-03-26T19:03:39.425Z,26.57
2019-03-26T19:06:07.873Z,43.42
2019-03-26T19:08:36.327Z,34.48
2019-03-26T19:11:04.773Z,40.70
2019-03-26T19:13:33.227Z,41.23
2019-03-26T19:16:07.715Z,29.82
2019-03-26T19:18:36.148Z,44.77
2019-03-26T19:21:06.226Z,37.85
2019-03-26T19:23:34.669Z,48.65
2019-03-26T19:26:03.119Z,39.80
2019-03-26T19:28:31.559Z,35.15
2019-03-26T19:31:00.035Z,39.45
2019-03-26T19:33:28.492Z,46.70
2019-03-26T19:35:56.939Z,33.10
2019-03-26T19:38:25.398Z,39.45
2019-03-26T19:40:53.852Z,37.65
2019-03-26T19:43:23.207Z,42.83
2019-03-26T19:45:53.187Z,36.60
2019-03-26T19:48:21.632Z,39.73
2019-03-26T19:50:50.079Z,35.52
2019-03-26T19:53:20.563Z,39.80
2019-03-26T19:55:48.999Z,45.65
2019-03-26T19:58:17.443Z,31.17
2019-03-26T20:00:45.908Z,36.65
2019-03-26T20:03:14.400Z,36.58
2019-03-26T20:05:42.849Z,34.55
2019-03-26T20:08:11.310Z,36.50
2019-03-26T20:10:39.758Z,45.30
2019-03-26T20:13:23.342Z,41.08
2019-03-26T20:15:40.923Z,35.40
2019-03-26T20:18:09.379Z,47.53
2019-03-26T20:20:38.926Z,38.00
2019-03-26T20:23:07.434Z,51.80
2019-03-26T20:25:35.878Z,41.23
2019-03-26T20:28:04.310Z,38.88
2019-03-26T20:30:32.758Z,37.45
2019-03-26T20:33:01.195Z,38.83
2019-03-26T20:35:29.640Z,34.70
2019-03-26T20:37:59.726Z,42.50
2019-03-26T20:40:28.165Z,50.15
2019-03-26T20:42:56.595Z,33.10
2019-03-26T20:45:25.038Z,32.85
2019-03-26T20:47:54.367Z,35.90
2019-03-26T20:50:24.624Z,38.42
2019-03-26T20:52:55.780Z,36.00
2019-03-26T20:55:30.134Z,39.13
2019-03-26T20:57:58.648Z,35.98
2019-03-26T21:00:38.900Z,51.02
2019-03-26T21:03:07.402Z,35.38
2019-03-26T21:05:35.993Z,39.75
2019-03-26T21:08:04.782Z,36.35
2019-03-26T21:10:33.576Z,42.70
2019-03-26T21:13:02.003Z,36.33
2019-03-26T21:15:30.449Z,47.25
2019-03-26T21:17:58.883Z,37.08
2019-03-26T21:20:27.334Z,50.20
2019-03-26T21:22:55.850Z,40.28
2019-03-26T21:25:24.308Z,41.02
2019-03-26T21:27:52.801Z,41.88
2019-03-26T21:30:21.384Z,40.43
2019-03-26T21:32:52.609Z,31.75
2019-03-26T21:35:21.077Z,43.75
2019-03-26T21:37:49.528Z,41.48
2019-03-26T21:40:18.831Z,41.20
2019-03-26T21:42:47.262Z,42.93
2019-03-26T21:45:16.070Z,49.38
2019-03-26T21:47:44.511Z,36.35
2019-03-26T21:50:13.697Z,42.60
2019-03-26T21:52:42.146Z,31.40
2019-03-26T21:55:13.417Z,40.03
2019-03-26T21:57:42.068Z,42.33
2019-03-26T22:00:11.246Z,30.17
2019-03-26T22:02:39.683Z,44.80
2019-03-26T22:05:09.069Z,39.55
2019-03-26T22:07:37.500Z,36.65
2019-03-26T22:10:07.077Z,43.10
2019-03-26T22:12:35.519Z,52.10
2019-03-26T22:15:06.586Z,43.17
2019-03-26T22:17:35.014Z,38.25
2019-03-26T22:20:04.004Z,37.70
2019-03-26T22:22:32.461Z,38.42
2019-03-26T22:25:00.882Z,43.33
2019-03-26T22:27:29.327Z,41.28
2019-03-26T22:29:57.773Z,40.10
2019-03-26T22:32:26.219Z,49.70
2019-03-26T22:34:54.661Z,48.38
2019-03-26T22:37:25.063Z,39.23
2019-03-26T22:39:53.512Z,39.78
2019-03-26T22:42:21.990Z,53.17
2019-03-26T22:44:50.421Z,46.80
2019-03-26T22:47:20.878Z,42.23
2019-03-26T22:49:49.343Z,47.60
2019-03-26T22:52:17.771Z,45.80
2019-03-26T22:54:46.214Z,35.15
2019-03-26T22:57:15.005Z,42.75
2019-03-26T22:59:43.442Z,49.58
2019-03-26T23:02:13.421Z,61.98
2019-03-26T23:04:41.887Z,50.48
2019-03-26T23:07:10.352Z,49.83
2019-03-26T23:09:39.219Z,48.42
2019-03-26T23:12:07.809Z,47.98
2019-03-26T23:14:45.187Z,42.50
2019-03-26T23:17:10.895Z,55.10
2019-03-26T23:19:39.402Z,53.05
2019-03-26T23:22:27.531Z,43.83
2019-03-26T23:24:56.005Z,43.60
2019-03-26T23:27:24.543Z,39.75
2019-03-26T23:29:53.002Z,38.60
2019-03-26T23:32:21.442Z,45.12
2019-03-26T23:34:51.255Z,64.22
2019-03-26T23:37:19.703Z,60.48
2019-03-26T23:39:48.143Z,53.02
2019-03-26T23:42:16.581Z,44.98
2019-03-26T23:44:57.498Z,53.02
2019-03-26T23:47:18.258Z,52.17
2019-03-26T23:49:46.569Z,36.60
2019-03-26T23:52:15.013Z,54.30
2019-03-26T23:54:43.469Z,44.73
2019-03-26T23:57:11.951Z,37.15
2019-03-26T23:59:40.434Z,54.15
